sensor_id;sensor_type;location;lat;lon;timestamp;P1;durP1;ratioP1;P2;durP2;ratioP2
25359;SDS011;13311;51.386;0.016;2023-04-06T00:03:42;15.45;;;12.27;;
25359;SDS011;13311;51.386;0.016;2023-04-06T00:08:42;14.57;;;11.23;;
25359;SDS011;13311;51.386;0.016;2023-04-06T00:13:44;16.55;;;12.07;;
25359;SDS011;13311;51.386;0.016;2023-04-06T00:18:45;15.57;;;12.75;;
25359;SDS011;13311;51.386;0.016;2023-04-06T00:23:46;16.17;;;11.98;;
25359;SDS011;13311;51.386;0.016;2023-04-06T00:28:47;12.43;;;10.30;;
25359;SDS011;13311;51.386;0.016;2023-04-06T00:33:50;9.32;;;8.15;;
25359;SDS011;13311;51.386;0.016;2023-04-06T00:38:51;9.30;;;7.32;;
25359;SDS011;13311;51.386;0.016;2023-04-06T00:43:51;7.05;;;6.10;;
25359;SDS011;13311;51.386;0.016;2023-04-06T00:48:53;5.45;;;4.93;;
25359;SDS011;13311;51.386;0.016;2023-04-06T00:53:54;5.18;;;4.60;;
25359;SDS011;13311;51.386;0.016;2023-04-06T00:58:55;4.90;;;4.43;;
25359;SDS011;13311;51.386;0.016;2023-04-06T01:03:56;3.92;;;3.53;;
25359;SDS011;13311;51.386;0.016;2023-04-06T01:08:56;3.72;;;3.38;;
25359;SDS011;13311;51.386;0.016;2023-04-06T01:13:57;3.95;;;3.38;;
25359;SDS011;13311;51.386;0.016;2023-04-06T01:18:58;3.30;;;3.00;;
25359;SDS011;13311;51.386;0.016;2023-04-06T01:23:59;2.75;;;2.50;;
25359;SDS011;13311;51.386;0.016;2023-04-06T01:29:00;2.90;;;2.67;;
25359;SDS011;13311;51.386;0.016;2023-04-06T01:34:02;3.22;;;2.95;;
25359;SDS011;13311;51.386;0.016;2023-04-06T01:39:03;2.60;;;2.40;;
25359;SDS011;13311;51.386;0.016;2023-04-06T01:44:04;2.60;;;2.28;;
25359;SDS011;13311;51.386;0.016;2023-04-06T01:49:05;2.58;;;2.38;;
25359;SDS011;13311;51.386;0.016;2023-04-06T01:54:06;2.30;;;2.10;;
25359;SDS011;13311;51.386;0.016;2023-04-06T01:59:07;2.50;;;2.30;;
25359;SDS011;13311;51.386;0.016;2023-04-06T02:04:07;2.05;;;1.90;;
25359;SDS011;13311;51.386;0.016;2023-04-06T02:09:08;1.60;;;1.50;;
25359;SDS011;13311;51.386;0.016;2023-04-06T02:14:09;1.85;;;1.65;;
25359;SDS011;13311;51.386;0.016;2023-04-06T02:19:09;1.52;;;1.42;;
25359;SDS011;13311;51.386;0.016;2023-04-06T02:24:10;2.35;;;1.40;;
25359;SDS011;13311;51.386;0.016;2023-04-06T02:29:11;1.50;;;1.40;;
25359;SDS011;13311;51.386;0.016;2023-04-06T02:34:12;1.20;;;1.10;;
25359;SDS011;13311;51.386;0.016;2023-04-06T02:39:17;2.47;;;1.80;;
25359;SDS011;13311;51.386;0.016;2023-04-06T02:44:19;2.63;;;2.38;;
25359;SDS011;13311;51.386;0.016;2023-04-06T02:49:21;2.13;;;1.92;;
25359;SDS011;13311;51.386;0.016;2023-04-06T02:54:22;2.95;;;1.67;;
25359;SDS011;13311;51.386;0.016;2023-04-06T02:59:22;2.50;;;1.90;;
25359;SDS011;13311;51.386;0.016;2023-04-06T03:04:23;1.70;;;1.58;;
25359;SDS011;13311;51.386;0.016;2023-04-06T03:09:25;1.50;;;1.35;;
25359;SDS011;13311;51.386;0.016;2023-04-06T03:14:27;0.73;;;0.73;;
25359;SDS011;13311;51.386;0.016;2023-04-06T03:19:28;0.60;;;0.60;;
25359;SDS011;13311;51.386;0.016;2023-04-06T03:24:29;0.75;;;0.75;;
25359;SDS011;13311;51.386;0.016;2023-04-06T03:29:29;1.73;;;0.60;;
25359;SDS011;13311;51.386;0.016;2023-04-06T03:34:31;0.40;;;0.38;;
25359;SDS011;13311;51.386;0.016;2023-04-06T03:39:31;0.68;;;0.65;;
25359;SDS011;13311;51.386;0.016;2023-04-06T03:44:32;0.57;;;0.57;;
25359;SDS011;13311;51.386;0.016;2023-04-06T03:49:33;0.85;;;0.85;;
25359;SDS011;13311;51.386;0.016;2023-04-06T03:54:34;1.10;;;1.00;;
25359;SDS011;13311;51.386;0.016;2023-04-06T03:59:35;1.20;;;1.20;;
25359;SDS011;13311;51.386;0.016;2023-04-06T04:04:35;1.70;;;1.60;;
25359;SDS011;13311;51.386;0.016;2023-04-06T04:09:36;1.80;;;1.70;;
25359;SDS011;13311;51.386;0.016;2023-04-06T04:14:37;2.30;;;2.15;;
25359;SDS011;13311;51.386;0.016;2023-04-06T04:19:38;3.03;;;2.83;;
25359;SDS011;13311;51.386;0.016;2023-04-06T04:24:38;3.83;;;3.53;;
25359;SDS011;13311;51.386;0.016;2023-04-06T04:29:39;3.53;;;3.22;;
25359;SDS011;13311;51.386;0.016;2023-04-06T04:34:40;5.38;;;3.85;;
25359;SDS011;13311;51.386;0.016;2023-04-06T04:39:41;4.63;;;4.22;;
25359;SDS011;13311;51.386;0.016;2023-04-06T04:44:41;4.72;;;4.32;;
25359;SDS011;13311;51.386;0.016;2023-04-06T04:49:42;6.75;;;4.80;;
25359;SDS011;13311;51.386;0.016;2023-04-06T04:54:43;5.05;;;4.55;;
25359;SDS011;13311;51.386;0.016;2023-04-06T04:59:43;5.43;;;4.40;;
25359;SDS011;13311;51.386;0.016;2023-04-06T05:04:44;5.85;;;4.63;;
25359;SDS011;13311;51.386;0.016;2023-04-06T05:09:45;6.10;;;4.68;;
25359;SDS011;13311;51.386;0.016;2023-04-06T05:14:46;5.90;;;5.20;;
25359;SDS011;13311;51.386;0.016;2023-04-06T05:19:47;5.55;;;5.05;;
25359;SDS011;13311;51.386;0.016;2023-04-06T05:24:48;5.75;;;5.15;;
25359;SDS011;13311;51.386;0.016;2023-04-06T05:29:49;6.18;;;5.07;;
25359;SDS011;13311;51.386;0.016;2023-04-06T05:34:50;6.18;;;5.57;;
25359;SDS011;13311;51.386;0.016;2023-04-06T05:39:51;6.65;;;5.47;;
25359;SDS011;13311;51.386;0.016;2023-04-06T05:44:52;7.53;;;6.00;;
25359;SDS011;13311;51.386;0.016;2023-04-06T05:49:52;7.75;;;6.20;;
25359;SDS011;13311;51.386;0.016;2023-04-06T05:54:53;7.80;;;6.18;;
25359;SDS011;13311;51.386;0.016;2023-04-06T05:59:54;7.47;;;6.07;;
25359;SDS011;13311;51.386;0.016;2023-04-06T06:04:55;7.68;;;6.82;;
25359;SDS011;13311;51.386;0.016;2023-04-06T06:09:56;8.57;;;6.68;;
25359;SDS011;13311;51.386;0.016;2023-04-06T06:14:58;8.25;;;7.00;;
25359;SDS011;13311;51.386;0.016;2023-04-06T06:19:58;9.00;;;6.82;;
25359;SDS011;13311;51.386;0.016;2023-04-06T06:24:59;6.93;;;6.00;;
25359;SDS011;13311;51.386;0.016;2023-04-06T06:30:00;8.63;;;5.45;;
25359;SDS011;13311;51.386;0.016;2023-04-06T06:35:02;7.43;;;6.05;;
25359;SDS011;13311;51.386;0.016;2023-04-06T06:40:03;7.28;;;6.13;;
25359;SDS011;13311;51.386;0.016;2023-04-06T06:45:06;8.07;;;6.20;;
25359;SDS011;13311;51.386;0.016;2023-04-06T06:50:08;6.53;;;5.53;;
25359;SDS011;13311;51.386;0.016;2023-04-06T06:55:09;5.82;;;5.20;;
25359;SDS011;13311;51.386;0.016;2023-04-06T07:00:11;5.95;;;5.28;;
25359;SDS011;13311;51.386;0.016;2023-04-06T07:05:13;4.72;;;4.22;;
25359;SDS011;13311;51.386;0.016;2023-04-06T07:10:16;5.30;;;4.25;;
25359;SDS011;13311;51.386;0.016;2023-04-06T07:15:16;6.38;;;4.70;;
25359;SDS011;13311;51.386;0.016;2023-04-06T07:20:17;5.88;;;4.45;;
25359;SDS011;13311;51.386;0.016;2023-04-06T07:25:18;5.57;;;4.30;;
25359;SDS011;13311;51.386;0.016;2023-04-06T07:30:19;4.22;;;3.80;;
25359;SDS011;13311;51.386;0.016;2023-04-06T07:35:22;3.22;;;2.60;;
25359;SDS011;13311;51.386;0.016;2023-04-06T07:40:23;2.78;;;2.17;;
25359;SDS011;13311;51.386;0.016;2023-04-06T07:45:26;2.70;;;2.35;;
25359;SDS011;13311;51.386;0.016;2023-04-06T07:50:26;2.75;;;1.70;;
25359;SDS011;13311;51.386;0.016;2023-04-06T07:55:27;3.17;;;1.65;;
25359;SDS011;13311;51.386;0.016;2023-04-06T08:00:28;2.20;;;1.10;;
25359;SDS011;13311;51.386;0.016;2023-04-06T08:05:30;1.65;;;1.27;;
25359;SDS011;13311;51.386;0.016;2023-04-06T08:10:30;3.80;;;1.52;;
25359;SDS011;13311;51.386;0.016;2023-04-06T08:15:31;4.60;;;1.80;;
25359;SDS011;13311;51.386;0.016;2023-04-06T08:20:32;3.78;;;1.20;;
25359;SDS011;13311;51.386;0.016;2023-04-06T08:25:34;3.85;;;1.55;;
25359;SDS011;13311;51.386;0.016;2023-04-06T08:30:35;4.90;;;1.30;;
25359;SDS011;13311;51.386;0.016;2023-04-06T08:35:42;3.88;;;1.60;;
25359;SDS011;13311;51.386;0.016;2023-04-06T08:40:43;3.33;;;1.02;;
25359;SDS011;13311;51.386;0.016;2023-04-06T08:45:44;6.25;;;1.83;;
25359;SDS011;13311;51.386;0.016;2023-04-06T08:50:45;2.45;;;1.25;;
25359;SDS011;13311;51.386;0.016;2023-04-06T08:55:46;6.78;;;1.85;;
25359;SDS011;13311;51.386;0.016;2023-04-06T09:00:48;3.92;;;1.50;;
25359;SDS011;13311;51.386;0.016;2023-04-06T09:05:49;4.75;;;1.63;;
25359;SDS011;13311;51.386;0.016;2023-04-06T09:10:50;7.75;;;1.65;;
25359;SDS011;13311;51.386;0.016;2023-04-06T09:16:01;3.13;;;1.30;;
25359;SDS011;13311;51.386;0.016;2023-04-06T09:21:05;5.70;;;1.48;;
25359;SDS011;13311;51.386;0.016;2023-04-06T09:31:24;6.13;;;1.80;;
25359;SDS011;13311;51.386;0.016;2023-04-06T09:36:31;6.50;;;2.10;;
25359;SDS011;13311;51.386;0.016;2023-04-06T09:41:34;11.52;;;2.10;;
25359;SDS011;13311;51.386;0.016;2023-04-06T09:46:37;7.13;;;1.80;;
25359;SDS011;13311;51.386;0.016;2023-04-06T09:51:40;11.32;;;2.72;;
25359;SDS011;13311;51.386;0.016;2023-04-06T09:57:07;9.43;;;2.50;;
25359;SDS011;13311;51.386;0.016;2023-04-06T10:02:32;6.75;;;2.22;;
25359;SDS011;13311;51.386;0.016;2023-04-06T10:08:08;8.13;;;1.73;;
25359;SDS011;13311;51.386;0.016;2023-04-06T10:13:11;5.13;;;1.77;;
25359;SDS011;13311;51.386;0.016;2023-04-06T10:18:12;7.85;;;2.28;;
25359;SDS011;13311;51.386;0.016;2023-04-06T10:23:15;7.10;;;2.05;;
25359;SDS011;13311;51.386;0.016;2023-04-06T10:28:25;4.57;;;1.85;;
25359;SDS011;13311;51.386;0.016;2023-04-06T10:33:35;7.25;;;2.35;;
25359;SDS011;13311;51.386;0.016;2023-04-06T10:38:37;7.05;;;1.52;;
25359;SDS011;13311;51.386;0.016;2023-04-06T10:43:40;4.28;;;1.63;;
25359;SDS011;13311;51.386;0.016;2023-04-06T10:48:41;6.00;;;2.25;;
25359;SDS011;13311;51.386;0.016;2023-04-06T10:53:46;4.22;;;1.25;;
25359;SDS011;13311;51.386;0.016;2023-04-06T10:58:49;5.18;;;1.30;;
25359;SDS011;13311;51.386;0.016;2023-04-06T11:03:53;3.78;;;1.25;;
25359;SDS011;13311;51.386;0.016;2023-04-06T11:08:58;11.63;;;9.07;;
25359;SDS011;13311;51.386;0.016;2023-04-06T11:13:59;4.60;;;1.83;;
25359;SDS011;13311;51.386;0.016;2023-04-06T11:19:01;7.60;;;1.98;;
25359;SDS011;13311;51.386;0.016;2023-04-06T11:29:15;2.50;;;1.20;;
25359;SDS011;13311;51.386;0.016;2023-04-06T11:34:22;4.00;;;1.40;;
25359;SDS011;13311;51.386;0.016;2023-04-06T11:39:24;3.58;;;1.23;;
25359;SDS011;13311;51.386;0.016;2023-04-06T11:49:40;10.45;;;2.17;;
25359;SDS011;13311;51.386;0.016;2023-04-06T11:54:45;2.80;;;1.33;;
25359;SDS011;13311;51.386;0.016;2023-04-06T11:59:48;4.82;;;1.50;;
25359;SDS011;13311;51.386;0.016;2023-04-06T12:04:49;3.60;;;1.23;;
25359;SDS011;13311;51.386;0.016;2023-04-06T12:09:50;3.35;;;1.15;;
25359;SDS011;13311;51.386;0.016;2023-04-06T12:14:51;5.40;;;1.17;;
25359;SDS011;13311;51.386;0.016;2023-04-06T12:19:51;3.55;;;1.63;;
25359;SDS011;13311;51.386;0.016;2023-04-06T12:24:52;1.60;;;0.68;;
25359;SDS011;13311;51.386;0.016;2023-04-06T12:29:53;1.70;;;0.80;;
25359;SDS011;13311;51.386;0.016;2023-04-06T12:34:54;3.67;;;1.17;;
25359;SDS011;13311;51.386;0.016;2023-04-06T12:39:55;2.30;;;0.73;;
25359;SDS011;13311;51.386;0.016;2023-04-06T12:44:55;2.88;;;1.00;;
25359;SDS011;13311;51.386;0.016;2023-04-06T12:49:56;2.08;;;1.10;;
25359;SDS011;13311;51.386;0.016;2023-04-06T12:54:57;1.63;;;0.80;;
25359;SDS011;13311;51.386;0.016;2023-04-06T13:00:00;2.67;;;0.93;;
25359;SDS011;13311;51.386;0.016;2023-04-06T13:05:00;2.47;;;1.00;;
25359;SDS011;13311;51.386;0.016;2023-04-06T13:10:01;3.03;;;1.08;;
25359;SDS011;13311;51.386;0.016;2023-04-06T13:15:02;1.65;;;0.88;;
25359;SDS011;13311;51.386;0.016;2023-04-06T13:20:04;1.75;;;0.85;;
25359;SDS011;13311;51.386;0.016;2023-04-06T13:25:06;2.95;;;0.80;;
25359;SDS011;13311;51.386;0.016;2023-04-06T13:30:07;2.58;;;1.00;;
25359;SDS011;13311;51.386;0.016;2023-04-06T13:35:09;2.40;;;0.80;;
25359;SDS011;13311;51.386;0.016;2023-04-06T13:40:10;4.35;;;0.70;;
25359;SDS011;13311;51.386;0.016;2023-04-06T13:45:11;2.80;;;0.90;;
25359;SDS011;13311;51.386;0.016;2023-04-06T13:50:12;1.33;;;0.63;;
25359;SDS011;13311;51.386;0.016;2023-04-06T13:55:13;2.78;;;0.93;;
25359;SDS011;13311;51.386;0.016;2023-04-06T14:00:13;3.25;;;0.75;;
25359;SDS011;13311;51.386;0.016;2023-04-06T14:05:15;4.22;;;0.95;;
25359;SDS011;13311;51.386;0.016;2023-04-06T14:10:15;3.75;;;1.45;;
25359;SDS011;13311;51.386;0.016;2023-04-06T14:15:16;1.73;;;0.93;;
25359;SDS011;13311;51.386;0.016;2023-04-06T14:20:18;2.20;;;1.25;;
25359;SDS011;13311;51.386;0.016;2023-04-06T14:25:18;2.53;;;0.88;;
25359;SDS011;13311;51.386;0.016;2023-04-06T14:30:19;2.40;;;1.15;;
25359;SDS011;13311;51.386;0.016;2023-04-06T14:35:20;3.58;;;0.95;;
25359;SDS011;13311;51.386;0.016;2023-04-06T14:40:21;2.25;;;0.88;;
25359;SDS011;13311;51.386;0.016;2023-04-06T14:45:22;6.35;;;1.25;;
25359;SDS011;13311;51.386;0.016;2023-04-06T14:50:22;5.22;;;1.67;;
25359;SDS011;13311;51.386;0.016;2023-04-06T14:55:23;3.25;;;1.50;;
25359;SDS011;13311;51.386;0.016;2023-04-06T15:00:24;3.45;;;1.10;;
25359;SDS011;13311;51.386;0.016;2023-04-06T15:05:25;3.63;;;1.02;;
25359;SDS011;13311;51.386;0.016;2023-04-06T15:10:25;2.20;;;0.88;;
25359;SDS011;13311;51.386;0.016;2023-04-06T15:15:26;2.03;;;0.63;;
25359;SDS011;13311;51.386;0.016;2023-04-06T15:20:28;3.17;;;1.20;;
25359;SDS011;13311;51.386;0.016;2023-04-06T15:25:30;3.10;;;0.73;;
25359;SDS011;13311;51.386;0.016;2023-04-06T15:30:30;3.30;;;1.38;;
25359;SDS011;13311;51.386;0.016;2023-04-06T15:35:31;3.65;;;1.15;;
25359;SDS011;13311;51.386;0.016;2023-04-06T15:40:42;3.15;;;1.88;;
25359;SDS011;13311;51.386;0.016;2023-04-06T15:45:48;2.28;;;1.23;;
25359;SDS011;13311;51.386;0.016;2023-04-06T15:50:48;3.83;;;1.50;;
25359;SDS011;13311;51.386;0.016;2023-04-06T15:55:49;3.38;;;1.60;;
25359;SDS011;13311;51.386;0.016;2023-04-06T16:00:50;3.38;;;1.67;;
25359;SDS011;13311;51.386;0.016;2023-04-06T16:05:52;2.88;;;1.55;;
25359;SDS011;13311;51.386;0.016;2023-04-06T16:10:53;3.47;;;2.10;;
25359;SDS011;13311;51.386;0.016;2023-04-06T16:15:53;3.63;;;2.00;;
25359;SDS011;13311;51.386;0.016;2023-04-06T16:20:54;3.03;;;2.25;;
25359;SDS011;13311;51.386;0.016;2023-04-06T16:25:55;4.05;;;2.00;;
25359;SDS011;13311;51.386;0.016;2023-04-06T16:30:59;3.90;;;1.83;;
25359;SDS011;13311;51.386;0.016;2023-04-06T16:36:00;2.95;;;1.50;;
25359;SDS011;13311;51.386;0.016;2023-04-06T16:41:01;3.78;;;1.73;;
25359;SDS011;13311;51.386;0.016;2023-04-06T16:46:02;2.47;;;1.48;;
25359;SDS011;13311;51.386;0.016;2023-04-06T16:51:06;4.13;;;1.67;;
25359;SDS011;13311;51.386;0.016;2023-04-06T16:56:07;2.35;;;1.33;;
25359;SDS011;13311;51.386;0.016;2023-04-06T17:01:16;3.42;;;1.00;;
25359;SDS011;13311;51.386;0.016;2023-04-06T17:06:21;2.35;;;0.88;;
25359;SDS011;13311;51.386;0.016;2023-04-06T17:11:22;4.20;;;1.40;;
25359;SDS011;13311;51.386;0.016;2023-04-06T17:16:23;5.22;;;1.50;;
25359;SDS011;13311;51.386;0.016;2023-04-06T17:21:24;2.88;;;1.35;;
25359;SDS011;13311;51.386;0.016;2023-04-06T17:26:25;2.33;;;1.40;;
25359;SDS011;13311;51.386;0.016;2023-04-06T17:31:26;4.93;;;1.15;;
25359;SDS011;13311;51.386;0.016;2023-04-06T17:36:27;2.95;;;1.20;;
25359;SDS011;13311;51.386;0.016;2023-04-06T17:41:28;2.47;;;0.90;;
25359;SDS011;13311;51.386;0.016;2023-04-06T17:46:31;3.15;;;1.60;;
25359;SDS011;13311;51.386;0.016;2023-04-06T17:51:32;4.80;;;1.52;;
25359;SDS011;13311;51.386;0.016;2023-04-06T17:56:33;2.75;;;1.55;;
25359;SDS011;13311;51.386;0.016;2023-04-06T18:01:33;5.00;;;1.67;;
25359;SDS011;13311;51.386;0.016;2023-04-06T18:06:34;5.30;;;2.20;;
25359;SDS011;13311;51.386;0.016;2023-04-06T18:11:35;6.35;;;2.13;;
25359;SDS011;13311;51.386;0.016;2023-04-06T18:16:36;3.75;;;1.80;;
25359;SDS011;13311;51.386;0.016;2023-04-06T18:21:38;4.60;;;1.83;;
25359;SDS011;13311;51.386;0.016;2023-04-06T18:26:38;2.90;;;2.20;;
25359;SDS011;13311;51.386;0.016;2023-04-06T18:31:39;4.00;;;2.20;;
25359;SDS011;13311;51.386;0.016;2023-04-06T18:36:40;5.28;;;1.95;;
25359;SDS011;13311;51.386;0.016;2023-04-06T18:41:40;6.38;;;2.65;;
25359;SDS011;13311;51.386;0.016;2023-04-06T18:46:44;4.57;;;2.25;;
25359;SDS011;13311;51.386;0.016;2023-04-06T18:51:45;4.15;;;2.22;;
25359;SDS011;13311;51.386;0.016;2023-04-06T18:56:46;7.07;;;3.00;;
25359;SDS011;13311;51.386;0.016;2023-04-06T19:01:47;5.15;;;2.90;;
25359;SDS011;13311;51.386;0.016;2023-04-06T19:06:52;6.68;;;2.95;;
25359;SDS011;13311;51.386;0.016;2023-04-06T19:11:54;5.60;;;2.47;;
25359;SDS011;13311;51.386;0.016;2023-04-06T19:16:56;5.10;;;2.45;;
25359;SDS011;13311;51.386;0.016;2023-04-06T19:21:57;9.23;;;3.08;;
25359;SDS011;13311;51.386;0.016;2023-04-06T19:26:59;5.45;;;3.13;;
25359;SDS011;13311;51.386;0.016;2023-04-06T19:32:01;6.63;;;3.42;;
25359;SDS011;13311;51.386;0.016;2023-04-06T19:37:02;3.72;;;2.40;;
25359;SDS011;13311;51.386;0.016;2023-04-06T19:42:03;5.55;;;2.90;;
25359;SDS011;13311;51.386;0.016;2023-04-06T19:47:04;5.15;;;2.67;;
25359;SDS011;13311;51.386;0.016;2023-04-06T19:52:05;8.05;;;3.25;;
25359;SDS011;13311;51.386;0.016;2023-04-06T19:57:08;6.60;;;3.10;;
25359;SDS011;13311;51.386;0.016;2023-04-06T20:02:09;7.95;;;3.47;;
25359;SDS011;13311;51.386;0.016;2023-04-06T20:07:10;6.05;;;3.35;;
25359;SDS011;13311;51.386;0.016;2023-04-06T20:12:11;6.05;;;3.08;;
25359;SDS011;13311;51.386;0.016;2023-04-06T20:17:12;5.65;;;3.20;;
25359;SDS011;13311;51.386;0.016;2023-04-06T20:22:12;7.22;;;4.15;;
25359;SDS011;13311;51.386;0.016;2023-04-06T20:27:13;6.55;;;3.50;;
25359;SDS011;13311;51.386;0.016;2023-04-06T20:32:14;8.70;;;3.65;;
25359;SDS011;13311;51.386;0.016;2023-04-06T20:37:19;5.97;;;3.20;;
25359;SDS011;13311;51.386;0.016;2023-04-06T20:42:20;6.72;;;3.75;;
25359;SDS011;13311;51.386;0.016;2023-04-06T20:47:22;4.93;;;2.85;;
25359;SDS011;13311;51.386;0.016;2023-04-06T20:52:23;5.53;;;3.33;;
25359;SDS011;13311;51.386;0.016;2023-04-06T20:57:24;5.57;;;3.55;;
25359;SDS011;13311;51.386;0.016;2023-04-06T21:02:25;7.47;;;3.92;;
25359;SDS011;13311;51.386;0.016;2023-04-06T21:07:25;13.52;;;6.30;;
25359;SDS011;13311;51.386;0.016;2023-04-06T21:12:26;12.77;;;6.25;;
25359;SDS011;13311;51.386;0.016;2023-04-06T21:17:27;13.43;;;6.93;;
25359;SDS011;13311;51.386;0.016;2023-04-06T21:22:28;12.52;;;4.40;;
25359;SDS011;13311;51.386;0.016;2023-04-06T21:27:29;7.68;;;3.85;;
25359;SDS011;13311;51.386;0.016;2023-04-06T21:32:30;6.38;;;3.30;;
25359;SDS011;13311;51.386;0.016;2023-04-06T21:37:30;5.75;;;4.20;;
25359;SDS011;13311;51.386;0.016;2023-04-06T21:42:31;5.25;;;3.90;;
25359;SDS011;13311;51.386;0.016;2023-04-06T21:47:33;6.55;;;4.07;;
25359;SDS011;13311;51.386;0.016;2023-04-06T21:52:34;9.10;;;3.03;;
25359;SDS011;13311;51.386;0.016;2023-04-06T21:57:35;6.80;;;3.35;;
25359;SDS011;13311;51.386;0.016;2023-04-06T22:02:36;6.22;;;3.22;;
25359;SDS011;13311;51.386;0.016;2023-04-06T22:07:38;11.13;;;4.68;;
25359;SDS011;13311;51.386;0.016;2023-04-06T22:12:38;9.45;;;3.80;;
25359;SDS011;13311;51.386;0.016;2023-04-06T22:17:39;8.48;;;4.28;;
25359;SDS011;13311;51.386;0.016;2023-04-06T22:22:40;5.45;;;3.88;;
25359;SDS011;13311;51.386;0.016;2023-04-06T22:27:41;8.05;;;3.75;;
25359;SDS011;13311;51.386;0.016;2023-04-06T22:32:41;8.40;;;3.85;;
25359;SDS011;13311;51.386;0.016;2023-04-06T22:37:42;8.48;;;4.63;;
25359;SDS011;13311;51.386;0.016;2023-04-06T22:42:43;7.75;;;3.90;;
25359;SDS011;13311;51.386;0.016;2023-04-06T22:47:44;6.55;;;3.40;;
25359;SDS011;13311;51.386;0.016;2023-04-06T22:52:45;6.97;;;2.88;;
25359;SDS011;13311;51.386;0.016;2023-04-06T22:57:45;11.40;;;3.47;;
25359;SDS011;13311;51.386;0.016;2023-04-06T23:02:46;7.43;;;4.38;;
25359;SDS011;13311;51.386;0.016;2023-04-06T23:07:47;7.75;;;3.40;;
25359;SDS011;13311;51.386;0.016;2023-04-06T23:12:47;9.65;;;4.03;;
25359;SDS011;13311;51.386;0.016;2023-04-06T23:17:48;7.68;;;3.63;;
25359;SDS011;13311;51.386;0.016;2023-04-06T23:22:49;9.25;;;3.60;;
25359;SDS011;13311;51.386;0.016;2023-04-06T23:27:50;5.10;;;2.90;;
25359;SDS011;13311;51.386;0.016;2023-04-06T23:32:51;6.97;;;2.95;;
25359;SDS011;13311;51.386;0.016;2023-04-06T23:37:51;10.82;;;3.28;;
25359;SDS011;13311;51.386;0.016;2023-04-06T23:42:52;7.50;;;3.22;;
25359;SDS011;13311;51.386;0.016;2023-04-06T23:47:53;9.40;;;3.50;;
25359;SDS011;13311;51.386;0.016;2023-04-06T23:52:53;6.97;;;2.40;;
25359;SDS011;13311;51.386;0.016;2023-04-06T23:57:54;5.95;;;3.20;;
